CheckWX is a tool to help pilots better visualize weather data.  It is not intended as a substitute for an official pre-flight weather briefing.

17:09:35 UTC

ESSD METAR
Borlange Airport
Sweden
Current

50 mins ago

ESSD 211620Z AUTO 15005KT 110V170 9999 FEW096/// 17/14 Q1012
Observed
Jul-21 @ 16:20 UTC
Wind
  • 150° at 5 KTS
Visibility
10,000+ meters
Flight Rules
VFR
Cloud Levels
  • Few at 9,600' AGL
Temperature
17°C / 63°F
Dewpoint
14°C / 57°F
Humidity
83%
Altimeter
29.88" Hg
Pressure
1011.92 hPa
Previous

1 hour ago

ESSD 211550Z AUTO 15006KT 090V180 9999 FEW027/// BKN037/// 17/14 Q1013
Observed
Jul-21 @ 15:50 UTC
Wind
  • 150° at 6 KTS
Visibility
10,000+ meters
Flight Rules
VFR
Cloud Levels
  • Few at 2,700' AGL
  • Broken at 3,700' AGL
Temperature
17°C / 63°F
Dewpoint
14°C / 57°F
Humidity
83%
Altimeter
29.91" Hg
Pressure
1012.92 hPa
Previous

2 hours ago

ESSD 211520Z AUTO 14006KT 9999 FEW031/// SCT210/// 17/14 Q1013
Observed
Jul-21 @ 15:20 UTC
Wind
  • 140° at 6 KTS
Visibility
10,000+ meters
Flight Rules
VFR
Cloud Levels
  • Few at 3,100' AGL
  • Scattered at 21,000' AGL
Temperature
17°C / 63°F
Dewpoint
14°C / 57°F
Humidity
83%
Altimeter
29.91" Hg
Pressure
1012.92 hPa